Time;durP1;ratioP1;P1;durP2;ratioP2;P2;SDS_P1;SDS_P2;PMS_P1;PMS_P2;Temp;Humidity;BMP_temperature;BMP_pressure;BME280_temperature;BME280_humidity;BME280_pressure;Samples;Min_cycle;Max_cycle;Signal;HPM_P1;HPM_P2
2022/07/14 00:00:08;;;;;;;4.72;3.35;;;;;;;22.03;100.00;98731.06;4433600;32;20046;-70
2022/07/14 00:02:55;;;;;;;7.12;3.47;;;;;;;21.74;100.00;98697.09;4418411;32;20060;-70
2022/07/14 00:05:21;;;;;;;3.20;2.62;;;;;;;21.68;100.00;98699.22;4432939;32;20124;-69
2022/07/14 00:07:48;;;;;;;3.83;2.15;;;;;;;21.85;100.00;98724.91;4425603;32;20046;-69
2022/07/14 00:10:14;;;;;;;3.92;2.28;;;;;;;21.65;100.00;98688.94;4419826;32;20075;-70
2022/07/14 00:12:40;;;;;;;3.95;2.12;;;;;;;21.57;100.00;98689.78;4432873;32;20091;-69
2022/07/14 00:15:07;;;;;;;4.60;1.95;;;;;;;21.80;100.00;98720.44;4433414;32;20367;-70
2022/07/14 00:17:34;;;;;;;6.68;2.00;;;;;;;21.57;100.00;98712.50;4433187;32;20056;-69
2022/07/14 00:20:00;;;;;;;3.85;1.95;;;;;;;21.22;100.00;98671.56;4409521;32;20042;-70
2022/07/14 00:22:27;;;;;;;2.40;2.20;;;;;;;21.09;100.00;98677.25;4417155;32;20038;-68
2022/07/14 00:24:54;;;;;;;5.55;2.17;;;;;;;21.13;100.00;98711.06;4404011;32;20454;-68
2022/07/14 00:27:20;;;;;;;2.42;2.00;;;;;;;20.94;100.00;98682.13;4417603;32;20897;-68
2022/07/14 00:29:46;;;;;;;2.20;2.00;;;;;;;20.92;100.00;98684.41;4432015;32;20344;-68
2022/07/14 00:32:13;;;;;;;7.25;2.50;;;;;;;20.86;100.00;98680.22;4422386;32;20034;-69
2022/07/14 00:34:40;;;;;;;4.07;2.10;;;;;;;20.86;100.00;98678.28;4418875;32;20432;-69
2022/07/14 00:37:06;;;;;;;3.35;2.25;;;;;;;21.01;100.00;98709.00;4417645;32;20461;-68
2022/07/14 00:39:54;;;;;;;11.10;2.65;;;;;;;21.09;100.00;98721.03;4414789;32;20060;-69
2022/07/14 00:42:37;;;;;;;2.92;2.00;;;;;;;21.03;100.00;98714.97;4417637;32;20058;-69
2022/07/14 00:45:09;;;;;;;2.75;1.95;;;;;;;20.97;100.00;98725.28;4417435;32;20441;-69
2022/07/14 00:47:37;;;;;;;3.20;2.30;;;;;;;20.91;100.00;98721.09;4417239;32;20392;-68
2022/07/14 00:50:05;;;;;;;3.58;2.50;;;;;;;20.68;100.00;98702.16;4416331;32;20052;-70
2022/07/14 00:52:31;;;;;;;7.37;2.75;;;;;;;20.72;100.00;98723.41;4428785;32;20061;-68
2022/07/14 00:54:58;;;;;;;3.22;2.92;;;;;;;20.42;100.00;98698.63;4432493;32;20112;-69
2022/07/14 00:57:25;;;;;;;4.53;2.58;;;;;;;20.60;100.00;98732.22;4432807;32;20459;-69
2022/07/14 00:59:53;;;;;;;3.00;2.55;;;;;;;20.17;100.00;98654.59;4432489;32;20077;-69
2022/07/14 01:02:20;;;;;;;8.55;2.92;;;;;;;20.35;100.00;98687.38;4432070;32;20046;-69
2022/07/14 01:04:50;;;;;;;4.03;2.42;;;;;;;20.55;100.00;98722.28;4421119;32;20061;-70
2022/07/14 01:07:18;;;;;;;4.80;2.25;;;;;;;20.43;100.00;98727.59;4427129;32;20048;-70
2022/07/14 01:09:46;;;;;;;3.47;2.58;;;;;;;20.37;100.00;98726.13;4429600;32;20061;-71
2022/07/14 01:12:13;;;;;;;7.22;3.10;;;;;;;20.09;100.00;98682.72;4419918;32;20042;-69
2022/07/14 01:14:41;;;;;;;3.62;3.17;;;;;;;20.31;100.00;98726.31;4416932;32;20459;-68
2022/07/14 01:17:09;;;;;;;6.57;2.60;;;;;;;20.23;100.00;98723.56;4426301;32;20411;-68
2022/07/14 01:19:35;;;;;;;3.65;2.40;;;;;;;20.10;100.00;98719.84;4432269;32;20026;-69
2022/07/14 01:22:02;;;;;;;3.50;2.70;;;;;;;20.00;100.00;98714.72;4432219;32;20038;-69
2022/07/14 01:24:31;;;;;;;8.10;3.28;;;;;;;20.05;100.00;98728.22;4426209;32;20072;-69
2022/07/14 01:26:58;;;;;;;4.05;2.35;;;;;;;19.98;100.00;98725.16;4416142;32;20065;-70
2022/07/14 01:29:25;;;;;;;2.83;2.35;;;;;;;19.93;100.00;98713.25;4421456;32;20042;-70
2022/07/14 01:31:52;;;;;;;4.12;2.53;;;;;;;19.92;100.00;98719.81;4422374;32;20321;-68
2022/07/14 01:34:18;;;;;;;4.28;2.60;;;;;;;19.91;100.00;98707.31;4432309;32;20074;-68
2022/07/14 01:36:45;;;;;;;6.25;2.50;;;;;;;19.83;100.00;98708.06;4426936;32;20030;-69
2022/07/14 01:39:12;;;;;;;2.80;2.60;;;;;;;19.61;100.00;98670.75;4416525;32;20078;-69
2022/07/14 01:41:38;;;;;;;3.28;2.33;;;;;;;19.94;100.00;98709.41;4416230;32;20038;-69
2022/07/14 01:44:05;;;;;;;3.00;2.80;;;;;;;19.81;100.00;98674.81;4415495;32;20072;-69
2022/07/14 01:46:38;;;;;;;13.00;3.85;;;;;;;19.85;100.00;98670.34;4422094;32;20068;-70
2022/07/14 01:49:05;;;;;;;10.70;3.47;;;;;;;20.15;100.00;98711.47;4415652;32;20060;-70
2022/07/14 01:51:32;;;;;;;3.53;3.20;;;;;;;19.68;100.00;98635.56;4415998;32;20054;-69
2022/07/14 01:54:00;;;;;;;4.60;2.53;;;;;;;20.22;100.00;98705.56;4431458;32;20465;-68
2022/07/14 01:56:26;;;;;;;4.35;2.10;;;;;;;20.20;100.00;98707.78;4429852;32;20059;-69
2022/07/14 01:58:53;;;;;;;2.62;2.37;;;;;;;20.23;100.00;98696.22;4418279;32;20329;-69
2022/07/14 02:04:06;;;;;;;4.03;2.30;;;;;;;20.26;100.00;98690.94;4415005;32;20382;-70
2022/07/14 02:06:33;;;;;;;5.85;2.50;;;;;;;20.27;100.00;98687.06;4400428;32;20096;-68
2022/07/14 02:08:59;;;;;;;3.22;2.40;;;;;;;20.26;100.00;98690.94;4427992;32;20072;-68
2022/07/14 02:14:12;;;;;;;3.28;2.25;;;;;;;20.28;100.00;98694.12;4416526;32;20078;-68
2022/07/14 02:16:39;;;;;;;5.90;2.28;;;;;;;19.81;100.00;98633.84;4416323;32;20072;-68
2022/07/14 02:19:07;;;;;;;6.95;2.25;;;;;;;19.82;100.00;98653.78;4415043;32;20039;-69
2022/07/14 02:21:34;;;;;;;3.47;2.35;;;;;;;19.79;100.00;98649.75;4414995;32;20046;-70
2022/07/14 02:24:09;;;;;;;9.95;2.70;;;;;;;20.04;100.00;98688.34;4403880;32;20696;-69
2022/07/14 02:26:38;;;;;;;3.65;3.00;;;;;;;20.00;100.00;98692.84;4420696;32;20068;-69
2022/07/14 02:29:05;;;;;;;4.78;2.62;;;;;;;19.88;100.00;98686.09;4431553;32;20043;-70
2022/07/14 02:31:33;;;;;;;5.10;3.15;;;;;;;19.86;100.00;98693.78;4423897;32;20107;-70
2022/07/14 02:34:00;;;;;;;3.33;2.70;;;;;;;19.58;100.00;98655.81;4418402;32;20043;-70
2022/07/14 02:36:27;;;;;;;5.93;2.70;;;;;;;19.51;100.00;98655.44;4430205;32;20111;-71
2022/07/14 02:38:55;;;;;;;2.67;2.45;;;;;;;19.35;100.00;98627.81;4429972;32;20039;-71
2022/07/14 02:41:22;;;;;;;3.05;2.70;;;;;;;19.73;100.00;98694.69;4430727;32;20056;-70
2022/07/14 02:43:49;;;;;;;4.80;3.00;;;;;;;19.49;100.00;98663.16;4419391;32;20084;-69
2022/07/14 02:46:17;;;;;;;6.35;2.70;;;;;;;19.30;100.00;98649.78;4415639;32;20049;-70
2022/07/14 02:48:44;;;;;;;4.50;3.25;;;;;;;19.50;100.00;98692.09;4415662;32;20081;-69
2022/07/14 02:51:12;;;;;;;4.72;2.80;;;;;;;19.34;100.00;98674.53;4415627;32;20078;-70
2022/07/14 02:53:38;;;;;;;7.20;2.83;;;;;;;19.41;100.00;98685.78;4415276;32;20054;-69
2022/07/14 02:56:06;;;;;;;3.95;2.83;;;;;;;19.26;100.00;98664.38;4424999;32;20041;-69
2022/07/14 02:58:34;;;;;;;4.50;2.30;;;;;;;19.55;100.00;98707.53;4428144;32;20454;-71
2022/07/14 03:01:05;;;;;;;4.18;2.75;;;;;;;19.26;100.00;98669.84;4413507;32;20484;-70
2022/07/14 03:03:34;;;;;;;2.72;2.45;;;;;;;19.15;100.00;98674.78;4431081;32;20824;-69
2022/07/14 03:06:13;;;;;;;4.05;2.37;;;;;;;19.14;100.00;98678.62;4431064;32;20050;-69
2022/07/14 03:08:39;;;;;;;4.62;2.37;;;;;;;19.30;100.00;98709.03;4431008;32;20042;-68
2022/07/14 03:11:07;;;;;;;4.65;3.00;;;;;;;19.30;100.00;98714.50;4415359;32;20458;-69
2022/07/14 03:13:38;;;;;;;2.92;2.60;;;;;;;19.08;100.00;98690.78;4414511;32;20055;-70
2022/07/14 03:16:08;;;;;;;5.80;2.83;;;;;;;19.38;100.00;98721.91;4415241;32;20354;-69
2022/07/14 03:18:36;;;;;;;;;;;;;;;19.42;100.00;98720.16;4415647;32;20457;-69
2022/07/14 03:21:10;;;;;;;3.37;2.65;;;;;;;19.45;100.00;98722.28;4418718;32;19990;-70
2022/07/14 03:23:38;;;;;;;2.75;2.50;;;;;;;19.23;100.00;98688.47;4416780;32;20119;-69
2022/07/14 03:26:06;;;;;;;3.30;3.00;;;;;;;19.43;100.00;98713.56;4405998;32;20022;-70
2022/07/14 03:28:32;;;;;;;3.22;2.25;;;;;;;19.40;100.00;98708.75;4414651;32;20084;-69
2022/07/14 03:30:59;;;;;;;5.22;2.65;;;;;;;19.30;100.00;98703.56;4418111;32;20095;-69
2022/07/14 03:33:26;;;;;;;5.00;2.65;;;;;;;19.40;100.00;98719.66;4430721;32;20038;-70
2022/07/14 03:35:52;;;;;;;4.07;2.97;;;;;;;19.38;100.00;98716.44;4430787;32;20188;-70
2022/07/14 03:38:20;;;;;;;3.47;3.15;;;;;;;19.36;100.00;98718.69;4429784;32;20041;-70
2022/07/14 03:40:47;;;;;;;15.00;3.58;;;;;;;19.05;100.00;98686.75;4430081;32;20115;-69
2022/07/14 03:43:13;;;;;;;5.57;2.72;;;;;;;19.31;100.00;98711.44;4421211;32;20060;-71
2022/07/14 03:45:40;;;;;;;4.05;2.95;;;;;;;19.16;100.00;98731.78;4429676;32;20403;-70
2022/07/14 03:48:07;;;;;;;4.37;2.55;;;;;;;18.90;100.00;98689.91;4414796;32;20080;-69
2022/07/14 03:50:36;;;;;;;7.95;3.60;;;;;;;19.16;100.00;98731.78;4415308;32;20047;-70
2022/07/14 03:53:04;;;;;;;6.45;2.70;;;;;;;19.14;100.00;98734.00;4404763;32;20423;-69
2022/07/14 03:55:31;;;;;;;9.23;3.08;;;;;;;19.12;100.00;98736.25;4430106;32;20025;-69
2022/07/14 03:58:00;;;;;;;2.95;2.50;;;;;;;18.85;100.00;98697.09;4430267;32;20027;-69
2022/07/14 04:00:27;;;;;;;4.18;2.65;;;;;;;19.08;100.00;98734.47;4430651;32;20162;-69
2022/07/14 04:02:54;;;;;;;3.65;2.42;;;;;;;19.05;100.00;98742.16;4428604;32;20395;-71
2022/07/14 04:05:21;;;;;;;9.27;3.25;;;;;;;18.83;100.00;98691.13;4416128;32;20056;-70
2022/07/14 04:07:48;;;;;;;4.93;2.65;;;;;;;19.21;100.00;98739.00;4414973;32;20067;-69
2022/07/14 04:10:17;;;;;;;6.35;2.40;;;;;;;19.05;100.00;98711.31;4416639;32;20475;-69
2022/07/14 04:12:43;;;;;;;2.72;2.12;;;;;;;18.96;100.00;98677.75;4423542;32;20081;-69
2022/07/14 04:15:11;;;;;;;7.15;2.50;;;;;;;19.28;100.00;98730.38;4429860;32;20054;-69
2022/07/14 04:17:44;;;;;;;4.93;2.45;;;;;;;18.94;100.00;98697.16;4415627;32;20056;-69
2022/07/14 04:20:11;;;;;;;3.40;2.75;;;;;;;18.95;100.00;98708.88;4430334;32;20067;-69
2022/07/14 04:22:38;;;;;;;11.38;2.42;;;;;;;19.15;100.00;98741.09;4430103;32;20203;-70
2022/07/14 04:25:05;;;;;;;9.88;2.28;;;;;;;19.23;100.00;98748.50;4415016;32;20041;-69
2022/07/14 04:27:33;;;;;;;3.90;2.90;;;;;;;19.27;100.00;98735.03;4432385;32;20513;-70
2022/07/14 04:30:01;;;;;;;3.45;2.83;;;;;;;19.39;100.00;98734.44;4432962;32;20093;-69
2022/07/14 04:32:27;;;;;;;2.92;2.45;;;;;;;19.29;100.00;98707.41;4431107;32;20026;-70
2022/07/14 04:34:54;;;;;;;8.10;4.40;;;;;;;19.62;100.00;98748.81;4431916;32;20422;-72
2022/07/14 04:37:20;;;;;;;8.15;2.87;;;;;;;19.44;100.00;98704.28;4422954;32;20918;-70
2022/07/14 04:39:47;;;;;;;12.60;3.08;;;;;;;19.36;100.00;98703.13;4419109;32;20075;-70
2022/07/14 04:42:21;;;;;;;4.57;2.70;;;;;;;19.37;100.00;98709.38;4421227;32;20395;-70
2022/07/14 04:44:49;;;;;;;4.75;2.42;;;;;;;19.48;100.00;98721.63;4416679;32;20391;-70
2022/07/14 04:47:16;;;;;;;4.05;2.95;;;;;;;19.48;100.00;98716.19;4417949;32;20379;-69
2022/07/14 04:52:30;;;;;;;7.70;2.47;;;;;;;19.87;100.00;98752.78;4416920;32;20046;-70
2022/07/14 04:54:57;;;;;;;3.25;2.58;;;;;;;19.68;100.00;98727.63;4415764;32;20042;-70
2022/07/14 04:57:24;;;;;;;3.42;2.40;;;;;;;19.50;100.00;98713.94;4417554;32;20056;-69
2022/07/14 04:59:52;;;;;;;7.68;2.47;;;;;;;19.69;100.00;98718.28;4418383;32;20151;-71
2022/07/14 05:02:19;;;;;;;2.37;2.15;;;;;;;20.00;100.00;98752.97;4418216;32;20076;-69
2022/07/14 05:04:46;;;;;;;2.92;2.30;;;;;;;18.73;100.00;98567.87;4418971;32;20122;-70
2022/07/14 05:07:13;;;;;;;6.47;2.72;;;;;;;19.81;100.00;98734.91;4431926;32;20059;-70
2022/07/14 05:09:40;;;;;;;8.80;2.62;;;;;;;18.82;100.00;98580.41;4432573;32;20034;-71
2022/07/14 05:12:09;;;;;;;3.17;2.17;;;;;;;19.94;100.00;98744.09;4418917;32;20030;-70
2022/07/14 05:14:36;;;;;;;4.70;2.08;;;;;;;20.00;100.00;98752.97;4432387;32;20107;-70
2022/07/14 05:17:03;;;;;;;4.95;3.35;;;;;;;20.14;100.00;98748.16;4415986;32;20100;-71
2022/07/14 05:19:29;;;;;;;10.70;5.55;;;;;;;20.32;100.00;98757.16;4418473;32;20034;-71
2022/07/14 05:21:56;;;;;;;7.40;2.90;;;;;;;20.16;100.00;98724.03;4428007;32;20817;-71
2022/07/14 05:24:25;;;;;;;2.58;2.25;;;;;;;20.39;100.00;98759.41;4418076;32;20075;-69
2022/07/14 05:26:51;;;;;;;4.32;2.58;;;;;;;20.43;100.00;98757.66;4418796;32;20042;-71
2022/07/14 05:29:19;;;;;;;3.55;2.60;;;;;;;20.31;100.00;98753.63;4425619;32;20428;-70
2022/07/14 05:31:45;;;;;;;10.82;3.33;;;;;;;20.45;100.00;98758.94;4412587;32;20049;-69
2022/07/14 05:34:12;;;;;;;10.57;3.12;;;;;;;20.47;100.00;98728.53;4447756;32;20065;-70
2022/07/14 05:36:39;;;;;;;5.28;2.83;;;;;;;20.62;100.00;98736.25;4443280;32;20109;-71
2022/07/14 05:39:05;;;;;;;5.65;2.83;;;;;;;20.77;100.00;98734.16;4437932;32;20367;-70
2022/07/14 05:41:31;;;;;;;11.40;2.62;;;;;;;20.69;100.00;98730.31;4437414;32;20076;-70
2022/07/14 05:43:58;;;;;;;10.40;2.35;;;;;;;20.96;100.00;98751.03;4436563;32;20060;-69
2022/07/14 05:46:25;;;;;;;7.20;3.25;;;;;;;20.97;100.00;98755.38;4438053;32;20042;-70
2022/07/14 05:48:51;;;;;;;3.65;2.03;;;;;;;21.03;100.00;98767.75;4438708;32;20100;-70
2022/07/14 05:51:20;;;;;;;8.73;2.60;;;;;;;20.88;100.00;98732.69;4445620;32;20184;-70
2022/07/14 05:53:47;;;;;;;5.05;2.10;;;;;;;21.18;100.00;98752.72;4412002;32;20064;-70
2022/07/14 05:56:16;;;;;;;7.20;2.75;;;;;;;21.20;100.00;98722.28;4408810;32;20370;-70
2022/07/14 05:58:45;;;;;;;8.80;2.00;;;;;;;21.44;100.00;98759.25;4423106;32;20073;-69
2022/07/14 06:01:13;;;;;;;8.13;2.28;;;;;;;21.44;100.00;98764.72;4430630;32;20038;-70
2022/07/14 06:03:40;;;;;;;2.20;1.65;;;;;;;21.51;100.00;98759.59;4444674;32;20037;-70
2022/07/14 06:06:09;;;;;;;2.58;1.80;;;;;;;21.39;100.00;98766.50;4420897;32;20034;-70
2022/07/14 06:08:36;;;;;;;5.15;1.75;;;;;;;21.24;100.00;98734.22;4422958;32;20056;-69
2022/07/14 06:11:04;;;;;;;10.32;3.62;;;;;;;21.40;100.00;98770.88;4421967;32;20081;-70
2022/07/14 06:13:31;;;;;;;5.85;1.80;;;;;;;21.50;100.00;98777.16;4421106;32;20063;-70
2022/07/14 06:15:58;;;;;;;1.90;1.77;;;;;;;21.40;100.00;98781.81;4425931;32;20076;-70
2022/07/14 06:18:27;;;;;;;4.00;2.12;;;;;;;21.53;100.00;98779.22;4426984;32;20082;-70
2022/07/14 06:20:53;;;;;;;6.78;1.80;;;;;;;21.47;100.00;98780.50;4415880;32;20078;-69
2022/07/14 06:23:20;;;;;;;4.85;2.37;;;;;;;21.46;100.00;98778.91;4421525;32;20346;-69
2022/07/14 06:25:47;;;;;;;10.32;1.70;;;;;;;21.53;100.00;98790.19;4446048;32;20403;-70
2022/07/14 06:28:14;;;;;;;2.35;1.45;;;;;;;21.29;100.00;98791.53;4444793;32;20450;-69
2022/07/14 06:30:41;;;;;;;2.65;1.92;;;;;;;20.88;100.00;98762.78;4446304;32;20048;-69
2022/07/14 06:33:08;;;;;;;2.65;1.70;;;;;;;21.21;100.00;98792.34;4444778;32;20100;-70
2022/07/14 06:35:38;;;;;;;3.37;1.60;;;;;;;21.20;100.00;98804.44;4445455;32;20038;-69
2022/07/14 06:38:06;;;;;;;3.05;1.37;;;;;;;20.85;100.00;98763.44;4415781;32;20072;-69
2022/07/14 06:40:33;;;;;;;3.08;1.37;;;;;;;21.18;100.00;98795.75;4430015;32;20138;-70
2022/07/14 06:43:00;;;;;;;6.70;1.40;;;;;;;20.88;100.00;98765.53;4430498;32;20034;-68
2022/07/14 06:45:39;;;;;;;4.37;1.58;;;;;;;20.80;100.00;98782.75;4430198;32;20033;-70
2022/07/14 06:48:07;;;;;;;1.48;1.37;;;;;;;21.12;100.00;98797.84;4401020;32;20042;-71
2022/07/14 06:50:34;;;;;;;3.42;1.87;;;;;;;21.13;100.00;98799.44;4415132;32;20076;-70
2022/07/14 06:53:00;;;;;;;6.53;1.60;;;;;;;21.27;100.00;98803.91;4401191;32;20802;-72
2022/07/14 06:55:27;;;;;;;8.43;1.40;;;;;;;21.25;100.00;98806.97;4414005;32;20043;-72
2022/07/14 06:57:53;;;;;;;3.37;1.42;;;;;;;21.19;100.00;98808.31;4415524;32;20100;-72
2022/07/14 07:00:19;;;;;;;3.92;1.52;;;;;;;21.39;100.00;98802.09;4415529;32;20027;-72
2022/07/14 07:02:46;;;;;;;1.98;1.50;;;;;;;21.48;100.00;98795.81;4419156;32;20405;-73
2022/07/14 07:07:58;;;;;;;5.25;1.50;;;;;;;21.62;100.00;98821.09;4422408;32;20958;-72
2022/07/14 07:10:26;;;;;;;1.77;1.25;;;;;;;21.55;100.00;98812.56;4430349;32;20071;-72
2022/07/14 07:12:52;;;;;;;4.45;1.33;;;;;;;21.64;100.00;98818.03;4430452;32;20027;-72
2022/07/14 07:15:20;;;;;;;1.42;1.33;;;;;;;21.43;100.00;98783.09;4435124;32;20775;-72
2022/07/14 07:17:52;;;;;;;4.68;1.42;;;;;;;21.77;100.00;98817.78;4414842;32;20038;-72
2022/07/14 07:20:20;;;;;;;2.42;1.55;;;;;;;21.80;100.00;98821.03;4412390;32;20351;-72
2022/07/14 07:22:46;;;;;;;2.25;1.98;;;;;;;21.61;100.00;98794.03;4403787;32;20054;-72
2022/07/14 07:25:12;;;;;;;3.58;1.48;;;;;;;21.66;100.00;98772.72;4430049;32;20103;-72
2022/07/14 07:27:39;;;;;;;2.40;1.55;;;;;;;22.01;100.00;98810.91;4410692;32;20034;-71
2022/07/14 07:30:08;;;;;;;1.50;1.40;;;;;;;22.04;100.00;98821.22;4422428;32;20057;-72
2022/07/14 07:32:34;;;;;;;2.45;1.48;;;;;;;21.76;100.00;98788.78;4428458;32;20042;-72
2022/07/14 07:35:01;;;;;;;1.42;1.33;;;;;;;21.88;100.00;98806.47;4429739;32;20457;-73
2022/07/14 07:37:27;;;;;;;1.75;1.65;;;;;;;21.58;100.00;98800.97;4427675;32;20096;-71
2022/07/14 07:39:57;;;;;;;10.35;1.60;;;;;;;21.22;100.00;98709.06;4415311;32;20439;-72
2022/07/14 07:42:25;;;;;;;5.65;1.30;;;;;;;21.61;100.00;98796.78;4430155;32;20054;-72
2022/07/14 07:44:51;;;;;;;1.27;1.20;;;;;;;21.91;100.00;98828.53;4416137;32;20071;-73
2022/07/14 07:47:17;;;;;;;2.75;1.37;;;;;;;21.73;100.00;98838.78;4428677;32;20042;-72
2022/07/14 07:49:52;;;;;;;6.35;1.65;;;;;;;21.60;100.00;98784.97;4429139;32;20486;-72
2022/07/14 07:52:20;;;;;;;1.42;1.33;;;;;;;21.71;100.00;98774.47;4405971;32;20039;-72
2022/07/14 07:54:46;;;;;;;1.85;1.30;;;;;;;22.01;100.00;98832.84;4428887;32;20054;-73
2022/07/14 07:57:13;;;;;;;1.58;1.48;;;;;;;21.88;100.00;98790.03;4427929;32;20092;-73
2022/07/14 07:59:39;;;;;;;7.35;1.37;;;;;;;22.07;100.00;98804.09;4428198;32;20391;-73
2022/07/14 08:02:06;;;;;;;2.65;1.90;;;;;;;22.06;100.00;98802.47;4431930;32;20066;-73
2022/07/14 08:04:33;;;;;;;1.48;1.33;;;;;;;21.63;100.00;98767.91;4424157;32;20382;-72
2022/07/14 08:06:59;;;;;;;1.45;1.20;;;;;;;21.72;100.00;98774.13;4432803;32;20063;-73
2022/07/14 08:09:26;;;;;;;4.75;1.45;;;;;;;21.95;100.00;98790.28;4433035;32;20158;-73
2022/07/14 08:11:53;;;;;;;1.20;1.10;;;;;;;21.99;100.00;98780.28;4433055;32;20072;-73
2022/07/14 08:17:11;;;;;;;;;;;;;;;22.09;100.00;98823.75;4425460;32;20087;-73
2022/07/14 08:19:37;;;;;;;4.55;1.30;;;;;;;22.14;100.00;98820.81;4424467;32;19938;-72
2022/07/14 08:22:04;;;;;;;2.12;1.50;;;;;;;22.07;100.00;98814.28;4427767;32;20383;-73
2022/07/14 08:24:31;;;;;;;5.57;3.30;;;;;;;21.73;100.00;98751.09;4432597;32;20187;-72
2022/07/14 08:26:58;;;;;;;3.58;2.00;;;;;;;22.14;100.00;98815.34;4432993;32;20057;-72
2022/07/14 08:29:24;;;;;;;5.72;1.40;;;;;;;21.87;100.00;98766.50;4405488;32;20053;-72
2022/07/14 08:31:50;;;;;;;1.80;1.48;;;;;;;22.26;100.00;98808.34;4414718;32;20038;-72
2022/07/14 08:34:17;;;;;;;6.70;1.70;;;;;;;22.13;100.00;98808.25;4416532;32;20042;-73
2022/07/14 08:36:43;;;;;;;2.53;1.48;;;;;;;22.18;100.00;98798.22;4416997;32;20099;-73
2022/07/14 08:39:10;;;;;;;7.20;1.98;;;;;;;22.21;100.00;98759.16;4404203;32;20374;-73
2022/07/14 08:41:37;;;;;;;11.05;1.42;;;;;;;22.47;100.00;98795.47;4417474;32;20412;-73
2022/07/14 08:44:04;;;;;;;2.22;1.23;;;;;;;22.52;100.00;98802.69;4428812;32;20089;-73
2022/07/14 08:46:31;;;;;;;3.42;1.48;;;;;;;22.40;100.00;98778.75;4422271;32;20076;-73
2022/07/14 08:48:58;;;;;;;1.73;1.45;;;;;;;22.46;100.00;98809.50;4417867;32;20090;-73
2022/07/14 08:51:26;;;;;;;8.23;1.67;;;;;;;22.42;100.00;98814.88;4430164;32;20031;-72
2022/07/14 08:53:52;;;;;;;8.00;1.60;;;;;;;22.40;100.00;98788.91;4428131;32;20038;-72
2022/07/14 08:56:19;;;;;;;1.60;1.27;;;;;;;22.49;100.00;98784.94;4430223;32;20053;-73
2022/07/14 08:58:45;;;;;;;1.55;1.15;;;;;;;22.48;100.00;98807.22;4416237;32;20248;-73
2022/07/14 09:01:12;;;;;;;4.53;2.20;;;;;;;22.29;100.00;98821.41;4430117;32;20046;-72
2022/07/14 09:03:39;;;;;;;5.10;1.33;;;;;;;22.59;100.00;98813.13;4423975;32;20074;-73
2022/07/14 09:06:06;;;;;;;3.12;1.40;;;;;;;22.52;100.00;98808.19;4430157;32;20077;-72
2022/07/14 09:08:55;;;;;;;1.00;1.00;;;;;;;22.58;100.00;98795.06;4419004;32;20111;-72
2022/07/14 09:11:22;;;;;;;6.68;3.55;;;;;;;22.66;100.00;98791.44;4426211;32;20072;-72
2022/07/14 09:13:50;;;;;;;3.85;1.67;;;;;;;22.58;100.00;98789.59;4416635;32;20050;-72
2022/07/14 09:16:25;;;;;;;3.90;1.40;;;;;;;22.79;100.00;98789.56;4408211;32;20334;-74
2022/07/14 09:19:21;;;;;;;7.65;2.15;;;;;;;22.70;100.00;98775.91;4436150;32;20050;-72
2022/07/14 09:21:55;;;;;;;7.57;1.35;;;;;;;22.65;100.00;98809.03;4408782;32;20054;-73
2022/07/14 09:24:22;;;;;;;12.98;1.50;;;;;;;22.21;100.00;98794.81;4424041;32;20108;-73
2022/07/14 09:26:52;;;;;;;3.00;1.15;;;;;;;22.30;100.00;98823.00;4424969;32;20431;-73
2022/07/14 09:29:29;;;;;;;3.40;1.35;;;;;;;22.59;100.00;98824.09;4416319;32;20058;-73
2022/07/14 09:31:56;;;;;;;3.75;1.40;;;;;;;22.62;100.00;98801.47;4429640;32;20050;-72
2022/07/14 09:34:34;;;;;;;3.22;1.40;;;;;;;22.34;100.00;98769.13;4416505;32;20076;-74
2022/07/14 09:37:16;;;;;;;14.55;1.50;;;;;;;22.76;100.00;98782.78;4439212;32;20628;-73
2022/07/14 09:39:58;;;;;;;1.12;0.98;;;;;;;22.87;100.00;98820.81;4438302;32;20336;-73
2022/07/14 09:42:46;;;;;;;4.22;1.30;;;;;;;22.82;100.00;98833.59;4408880;32;20097;-73
2022/07/14 09:45:16;;;;;;;1.40;1.10;;;;;;;22.53;100.00;98808.97;4434038;32;20415;-74
2022/07/14 09:48:03;;;;;;;4.80;1.30;;;;;;;22.81;100.00;98809.22;4436287;32;20075;-72
2022/07/14 09:50:48;;;;;;;1.75;1.08;;;;;;;22.99;100.00;98798.88;4436287;32;20030;-73
2022/07/14 09:53:27;;;;;;;2.37;1.40;;;;;;;23.10;100.00;98811.06;4424722;32;20074;-72
2022/07/14 09:56:06;;;;;;;1.15;1.02;;;;;;;22.97;100.00;98823.12;4423997;32;20430;-71
2022/07/14 09:58:44;;;;;;;6.25;1.40;;;;;;;23.05;100.00;98819.50;4416013;32;20060;-74
2022/07/14 10:01:15;;;;;;;4.97;1.37;;;;;;;22.75;100.00;98821.56;4422940;32;20307;-72
2022/07/14 10:03:46;;;;;;;4.95;1.35;;;;;;;22.87;100.00;98820.81;4423723;32;20118;-72
2022/07/14 10:06:12;;;;;;;4.57;1.17;;;;;;;22.81;100.00;98796.31;4419402;32;20050;-71
2022/07/14 10:08:46;;;;;;;5.82;1.23;;;;;;;22.91;99.45;98802.53;4420714;32;20516;-72
2022/07/14 10:11:13;;;;;;;6.68;1.08;;;;;;;23.06;98.18;98810.13;4419869;32;20038;-73
2022/07/14 10:13:39;;;;;;;7.18;1.58;;;;;;;23.16;99.59;98815.22;4418511;32;20471;-72
2022/07/14 10:16:06;;;;;;;5.35;1.37;;;;;;;23.03;100.00;98783.34;4416223;32;20035;-72
2022/07/14 10:18:33;;;;;;;2.70;1.10;;;;;;;23.24;99.68;98804.50;4414272;32;20130;-72
2022/07/14 10:21:04;;;;;;;1.48;1.37;;;;;;;22.82;96.18;98762.25;4431573;32;20046;-71
2022/07/14 10:23:32;;;;;;;1.25;1.20;;;;;;;23.48;95.74;98796.28;4420883;32;20112;-72
2022/07/14 10:25:59;;;;;;;7.47;1.45;;;;;;;23.15;99.03;98779.84;4425022;32;20213;-72
2022/07/14 10:28:26;;;;;;;7.68;1.30;;;;;;;23.26;95.83;98736.28;4436462;32;20038;-72
2022/07/14 10:31:15;;;;;;;1.92;1.40;;;;;;;23.72;94.14;98797.44;4432150;32;20037;-72
2022/07/14 10:33:53;;;;;;;4.50;1.67;;;;;;;24.02;91.60;98778.00;4441126;32;20247;-71
2022/07/14 10:36:45;;;;;;;2.28;1.40;;;;;;;24.11;90.89;98786.94;4434999;32;20030;-71
2022/07/14 10:39:38;;;;;;;2.55;1.90;;;;;;;23.92;83.38;98788.31;4431094;32;20049;-72
2022/07/14 10:42:19;;;;;;;8.73;1.80;;;;;;;24.10;87.92;98786.12;4420052;32;20097;-72
2022/07/14 10:44:46;;;;;;;;;;;;;;;24.41;84.66;98783.88;4434719;32;20131;-71
2022/07/14 10:47:14;;;;;;;3.92;1.40;;;;;;;24.22;85.10;98777.06;4434792;32;20000;-71
2022/07/14 10:50:02;;;;;;;3.60;1.37;;;;;;;24.23;83.74;98806.16;4430713;32;20046;-73
2022/07/14 10:52:31;;;;;;;3.25;1.60;;;;;;;24.00;84.94;98794.84;4430275;32;20038;-73
2022/07/14 10:55:19;;;;;;;1.87;1.60;;;;;;;23.65;90.81;98737.56;4429793;32;20067;-72
2022/07/14 10:58:07;;;;;;;1.95;1.30;;;;;;;24.10;88.82;98788.06;4433211;32;20061;-72
2022/07/14 11:00:47;;;;;;;21.27;2.05;;;;;;;24.32;88.73;98772.19;4416996;32;20077;-72
2022/07/14 11:03:21;;;;;;;6.55;1.60;;;;;;;24.24;86.54;98741.75;4436896;32;20421;-72
2022/07/14 11:08:30;;;;;;;6.03;1.70;;;;;;;24.38;89.68;98773.56;4436511;32;20053;-73
2022/07/14 11:10:57;;;;;;;4.90;1.30;;;;;;;24.50;87.45;98775.50;4408955;32;20082;-72
2022/07/14 11:13:23;;;;;;;8.43;1.40;;;;;;;24.60;90.44;98773.09;4433841;32;20081;-72
2022/07/14 11:15:53;;;;;;;6.05;1.60;;;;;;;24.55;90.35;98750.47;4436517;32;20071;-71
2022/07/14 11:18:24;;;;;;;4.30;1.33;;;;;;;25.14;87.67;98776.50;4432109;32;20049;-72
2022/07/14 11:21:04;;;;;;;1.58;1.30;;;;;;;24.82;90.05;98773.69;4437186;32;20099;-71
2022/07/14 11:23:54;;;;;;;4.85;2.15;;;;;;;24.78;86.73;98770.00;4438019;32;20067;-72
2022/07/14 11:26:37;;;;;;;2.83;1.42;;;;;;;25.12;82.97;98756.78;4405398;32;20034;-72
2022/07/14 11:29:05;;;;;;;2.70;1.50;;;;;;;25.40;83.63;98769.69;4423016;32;20353;-72
2022/07/14 11:31:49;;;;;;;4.95;1.37;;;;;;;25.46;81.77;98749.00;4413298;32;20050;-73
2022/07/14 11:37:15;;;;;;;5.47;1.30;;;;;;;25.36;80.84;98751.13;4429295;32;20351;-72
2022/07/14 11:39:44;;;;;;;4.12;1.30;;;;;;;25.76;77.38;98740.25;4429742;32;20088;-73
2022/07/14 11:42:12;;;;;;;3.08;1.45;;;;;;;26.26;74.64;98757.94;4420564;32;20050;-71
2022/07/14 11:44:38;;;;;;;2.80;1.58;;;;;;;26.26;75.52;98749.66;4419418;32;20046;-72
2022/07/14 11:47:05;;;;;;;4.72;1.25;;;;;;;25.42;73.21;98783.91;4420360;32;20046;-71
2022/07/14 11:49:32;;;;;;;1.35;1.10;;;;;;;25.06;76.13;98752.69;4430266;32;20054;-72
2022/07/14 11:52:00;;;;;;;6.68;2.97;;;;;;;25.17;75.17;98759.25;4429714;32;20836;-72
2022/07/14 11:54:27;;;;;;;2.67;1.55;;;;;;;25.66;74.82;98769.19;4429314;32;20063;-70